Home > Products > Valid Products > TAF

000
FTUS46 KMFR 030846 AAA
TAFOTH
TAF AMD
KOTH 030846Z 0309/0406 VRB03KT P6SM OVC006
     FM031000 VRB03KT 5SM BR OVC006
     FM031700 34008KT P6SM BKN012 BKN090
     FM031900 35012G20KT P6SM SCT015 BKN090
     FM040300 36008KT P6SM OVC015
     FM040500 VRB03KT P6SM OVC012=



000
FTUS46 KMFR 030520
TAFMFR
TAF
KMFR 030520Z 0306/0406 VRB03KT 3SM FU BKN090
     FM032300 30008KT 1SM FU BKN090
     FM040400 VRB03KT 3SM FU SCT090=



000
FTUS46 KMFR 030520
TAFRBG
TAF
KRBG 030520Z 0306/0406 VRB03KT P6SM BKN090
     FM032200 36008KT P6SM BKN090
     FM040300 VRB03KT P6SM SCT090=



000
FTUS46 KMFR 030520
TAFOTH
TAF
KOTH 030520Z 0306/0406 VRB03KT P6SM OVC012
     FM031000 VRB03KT 5SM BR OVC008
     FM031700 34008KT P6SM BKN012 BKN090
     FM031900 35012G20KT P6SM SCT015 BKN090
     FM040300 36008KT P6SM OVC015
     FM040500 VRB03KT P6SM OVC012=



000
FTUS46 KMFR 030520
TAFLMT
TAF
KLMT 030520Z 0306/0406 07010KT P6SM SCT060
     FM030800 VRB03KT P6SM SCT060
     FM032300 30010KT 2SM FU VCTS BKN060CB
     FM040500 VRB03KT P6SM SCT060=



000
FTUS46 KMFR 030520
TAFLMT
TAF
KLMT 030520Z 0306/0406 07010KT P6SM SCT060
     FM030800 VRB03KT P6SM SCT060
     FM032300 30010KT 2SM FU VCTS BKN060CB
     FM040500 VRB03KT P6SM SCT060=



000
FTUS46 KMFR 030520
TAFRBG
TAF
KRBG 030520Z 0306/0406 VRB03KT P6SM BKN090
     FM032200 36008KT P6SM BKN090
     FM040300 VRB03KT P6SM SCT090=



000
FTUS46 KMFR 030520
TAFMFR
TAF
KMFR 030520Z 0306/0406 VRB03KT 3SM FU BKN090
     FM032300 30008KT 1SM FU BKN090
     FM040400 VRB03KT 3SM FU SCT090=



000
FTUS46 KMFR 030520
TAFOTH
TAF
KOTH 030520Z 0306/0406 VRB03KT P6SM OVC012
     FM031000 VRB03KT 5SM BR OVC008
     FM031700 34008KT P6SM BKN012 BKN090
     FM031900 35012G20KT P6SM SCT015 BKN090
     FM040300 36008KT P6SM OVC015
     FM040500 VRB03KT P6SM OVC012=



000
FTUS46 KMFR 030134 AAA
TAFLMT
TAF AMD
KLMT 030134Z 0302/0324 11009KT P6SM -RA SCT090 OVC110
     FM030600 VRB03KT 4SM FU BKN060
     FM030900 VRB03KT 4SM FU SCT020 SCT060
     FM032100 29010KT 4SM FU VCTS SCT060CB=



000
FTUS46 KMFR 030059 AAB
TAFOTH
TAF AMD
KOTH 030059Z 0301/0324 28004KT P6SM OVC008
     FM031900 35014KT P6SM BKN025=



000
FTUS46 KMFR 030031 AAA
TAFOTH
TAF AMD
KOTH 030031Z 0301/0324 27006KT P6SM SCT005
     FM030400 27005KT 4SM BR OVC008
     FM031900 35014KT P6SM BKN025=



000
FTUS46 KMFR 022351
TAFRBG
TAF
KRBG 022351Z 0300/0324 36004KT 6SM HZ FEW070 SCT090 BKN120=



000
FTUS46 KMFR 022351
TAFLMT
TAF
KLMT 022351Z 0300/0324 30013KT 2SM FU SKC
     FM030500 VRB03KT 4SM FU VCTS BKN060CB
     FM030900 VRB03KT 4SM FU SCT020 SCT060
     FM032100 29010KT 4SM FU VCTS SCT060CB=



000
FTUS46 KMFR 022351
TAFOTH
TAF
KOTH 022351Z 0300/0324 27006KT P6SM OVC011
     FM030500 27005KT 4SM BR OVC008
     FM031900 35014KT P6SM BKN025=



000
FTUS46 KMFR 022351
TAFOTH
TAF
KOTH 022351Z 0300/0324 27006KT P6SM OVC011
     FM030500 27005KT 4SM BR OVC008
     FM031900 35014KT P6SM BKN025=



000
FTUS46 KMFR 022351
TAFMFR
TAF
KMFR 022351Z 0300/0324 VRB04KT 1 1/2SM HZ FU FEW090 OVC110
     FM030400 VRB03KT 3SM FU SCT120
     FM031300 VRB03KT 2SM FU VV018=



000
FTUS46 KMFR 022351
TAFRBG
TAF
KRBG 022351Z 0300/0324 36004KT 6SM HZ FEW070 SCT090 BKN120=



000
FTUS46 KMFR 022351
TAFLMT
TAF
KLMT 022351Z 0300/0324 30013KT 2SM FU SKC
     FM030500 VRB03KT 4SM FU VCTS BKN060CB
     FM030900 VRB03KT 4SM FU SCT020 SCT060
     FM032100 29010KT 4SM FU VCTS SCT060CB=



000
FTUS46 KMFR 022351
TAFMFR
TAF
KMFR 022351Z 0300/0324 VRB04KT 1 1/2SM HZ FU FEW090 OVC110
     FM030400 VRB03KT 3SM FU SCT120
     FM031300 VRB03KT 2SM FU VV018=



000
FTUS46 KMFR 021935 AAA
TAFOTH
TAF AMD
KOTH 021935Z 0220/0318 VRB03KT P6SM OVC008
     FM022100 32010KT P6SM SCT060 BKN120
     FM030300 VRB03KT P6SM BKN120
     FM030800 34003KT 4SM BR OVC008=



000
FTUS46 KMFR 021746
TAFMFR
TAF
KMFR 021746Z 0218/0318 VRB03KT 1SM FU VCSH BKN018 BKN120
     FM022300 30010KT 1SM FU VCTS SCT020 SCT060CB BKN120
     FM030400 VRB03KT 3SM FU SCT120
     FM031300 VRB03KT 2SM FU BKN018=



000
FTUS46 KMFR 021746
TAFRBG
TAF
KRBG 021746Z 0218/0318 VRB03KT P6SM BKN120
     FM022200 36010KT P6SM SCT060 BKN120
     FM030100 01008KT P6SM VCTS SCT080CB BKN200
     FM030400 VRB03KT P6SM BKN080=



000
FTUS46 KMFR 021746
TAFMFR
TAF
KMFR 021746Z 0218/0318 VRB03KT 1SM FU VCSH BKN018 BKN120
     FM022300 30010KT 1SM FU VCTS SCT020 SCT060CB BKN120
     FM030400 VRB03KT 3SM FU SCT120
     FM031300 VRB03KT 2SM FU BKN018=



000
FTUS46 KMFR 021746
TAFLMT
TAF
KLMT 021746Z 0218/0318 VRB04KT 2SM FU SCT020 BKN120
     FM030000 31011KT 6SM FU VCTS BKN060CB
     FM030500 VRB03KT 4SM FU VCTS BKN060CB
     FM030900 VRB03KT 4SM FU SCT020 SCT060=



000
FTUS46 KMFR 021746
TAFOTH
TAF
KOTH 021746Z 0218/0318 VRB03KT P6SM OVC008
     FM021900 32010KT P6SM SCT060 BKN120
     FM030300 VRB03KT P6SM BKN120
     FM030800 34003KT 4SM BR OVC008=



000
FTUS46 KMFR 021746
TAFOTH
TAF
KOTH 021746Z 0218/0318 VRB03KT P6SM OVC008
     FM021900 32010KT P6SM SCT060 BKN120
     FM030300 VRB03KT P6SM BKN120
     FM030800 34003KT 4SM BR OVC008=



000
FTUS46 KMFR 021746
TAFLMT
TAF
KLMT 021746Z 0218/0318 VRB04KT 2SM FU SCT020 BKN120
     FM030000 31011KT 6SM FU VCTS BKN060CB
     FM030500 VRB03KT 4SM FU VCTS BKN060CB
     FM030900 VRB03KT 4SM FU SCT020 SCT060=



000
FTUS46 KMFR 021746
TAFRBG
TAF
KRBG 021746Z 0218/0318 VRB03KT P6SM BKN120
     FM022200 36010KT P6SM SCT060 BKN120
     FM030100 01008KT P6SM VCTS SCT080CB BKN200
     FM030400 VRB03KT P6SM BKN080=



000
FTUS46 KMFR 021521 AAB
TAFOTH
TAF AMD
KOTH 021521Z 0215/0312 VRB03KT P6SM OVC008
     FM021900 32010KT P6SM SCT060 BKN120
     FM030300 VRB03KT P6SM BKN120=



000
FTUS46 KMFR 021347 AAA
TAFOTH
TAF AMD
KOTH 021347Z 0214/0312 VRB03KT 1/2SM FG OVC003
     FM021900 32010KT P6SM SCT060 BKN120
     FM030300 VRB03KT P6SM BKN120=



000
FTUS46 KMFR 021347 AAA
TAFMFR
TAF AMD
KMFR 021347Z 0214/0312 VRB03KT 1SM FU VCSH SCT018 BKN120
     FM022300 30010KT 1SM FU VCTS SCT060CB BKN120
     FM030400 VRB03KT 3SM FU SCT120=



000
FTUS46 KMFR 021347 AAA
TAFOTH
TAF AMD
KOTH 021347Z 0214/0312 VRB03KT 1/2SM FG OVC003
     FM021900 32010KT P6SM SCT060 BKN120
     FM030300 VRB03KT P6SM BKN120=



000
FTUS46 KMFR 021139
TAFOTH
TAF
KOTH 021139Z 0212/0312 VRB03KT 5SM BR OVC011
     FM021900 32010KT P6SM SCT060 BKN120
     FM030300 VRB03KT P6SM BKN120=



000
FTUS46 KMFR 021139
TAFLMT
TAF
KLMT 021139Z 0212/0312 VRB03KT 1 1/2SM FU FEW025 SCT060
     FM021800 VRB04KT 5SM FU SCT060
     FM030000 31011KT 6SM FU VCTS BKN060CB
     FM030500 VRB03KT 4SM FU VCTS BKN060CB=



000
FTUS46 KMFR 021139
TAFRBG
TAF
KRBG 021139Z 0212/0312 VRB03KT P6SM BKN120
     FM022200 36010KT P6SM SCT060 BKN120
     FM030300 VRB03KT P6SM BKN120=



000
FTUS46 KMFR 021139
TAFMFR
TAF
KMFR 021139Z 0212/0312 VRB03KT 5SM FU SCT120
     FM022300 30010KT 1SM FU VCTS SCT060CB BKN120
     FM030400 VRB03KT 3SM FU SCT120=



000
FTUS46 KMFR 020714 AAB
TAFOTH
TAF AMD
KOTH 020714Z 0207/0306 16005KT P6SM OVC013
     FM020900 VRB03KT 1/2SM FG OVC002
     FM021600 VRB03KT P6SM SCT005 SCT120
     FM021900 26010KT P6SM SCT060 BKN120
     FM030300 VRB03KT P6SM BKN120=



000
FTUS46 KMFR 020714 AAB
TAFOTH
TAF AMD
KOTH 020714Z 0207/0306 16005KT P6SM OVC013
     FM020900 VRB03KT 1/2SM FG OVC002
     FM021600 VRB03KT P6SM SCT005 SCT120
     FM021900 26010KT P6SM SCT060 BKN120
     FM030300 VRB03KT P6SM BKN120=



000
FTUS46 KMFR 020556 AAA
TAFOTH
TAF AMD
KOTH 020556Z 0206/0306 00000KT P6SM VCTS BKN002 BKN014 OVC120CB
     FM020700 VRB03KT 1/2SM FG OVC002
     FM021600 VRB03KT P6SM SCT005 SCT120
     FM021900 26010KT P6SM SCT060 BKN120
     FM030300 VRB03KT P6SM BKN120=



000
FTUS46 KMFR 020520
TAFLMT
TAF
KLMT 020520Z 0206/0306 VRB03KT 3SM FU SCT060
     FM021000 VRB03KT 5SM FU SCT060
     FM030000 31011KT 1SM FU VCTS BKN060CB
     FM030500 VRB03KT 4SM FU VCTS BKN060CB=



000
FTUS46 KMFR 020520
TAFOTH
TAF
KOTH 020520Z 0206/0306 VRB03KT 1/2SM FG OVC002
     FM021600 VRB03KT P6SM SCT005 SCT120
     FM021900 26010KT P6SM SCT060 BKN120
     FM030300 VRB03KT P6SM BKN120=



000
FTUS46 KMFR 020520
TAFRBG
TAF
KRBG 020520Z 0206/0306 VRB03KT P6SM BKN120
     FM022200 36010KT P6SM SCT060 BKN120
     FM030300 VRB03KT P6SM BKN120=



000
FTUS46 KMFR 020520
TAFMFR
TAF
KMFR 020520Z 0206/0306 VRB03KT 5SM FU SCT120
     FM022300 30010KT 1SM FU SCT060 BKN120
     FM030400 VRB03KT 3SM FU SCT120=



000
FTUS46 KMFR 020405 AAB
TAFOTH
TAF AMD
KOTH 020405Z 0204/0224 VRB03KT P6SM BKN012
     FM020700 VRB03KT P6SM OVC006
     FM020900 VRB03KT 1/2SM FG OVC002
     FM021600 VRB03KT P6SM SCT005 SCT120
     FM021900 26010KT P6SM SCT060 BKN120=



000
FTUS46 KMFR 020405 AAB
TAFOTH
TAF AMD
KOTH 020405Z 0204/0224 VRB03KT P6SM BKN012
     FM020700 VRB03KT P6SM OVC006
     FM020900 VRB03KT 1/2SM FG OVC002
     FM021600 VRB03KT P6SM SCT005 SCT120
     FM021900 26010KT P6SM SCT060 BKN120=



000
FTUS46 KMFR 020258 AAA
TAFLMT
TAF AMD
KLMT 020258Z 0203/0224 34013G18KT 3/4SM FU HZ SCT023
     FM020600 VRB03KT 3SM FU HZ SCT025=



000
FTUS46 KMFR 020258 AAA
TAFLMT
TAF AMD
KLMT 020258Z 0203/0224 34013G18KT 3/4SM FU HZ SCT023
     FM020600 VRB03KT 3SM FU HZ SCT025=



000
FTUS46 KMFR 020246 AAA
TAFOTH
TAF AMD
KOTH 020246Z 0203/0224 28004KT P6SM SKC
     FM020500 26004KT 4SM BR OVC006
     FM021600 34005KT P6SM SCT012=



000
FTUS46 KMFR 020246 AAA
TAFOTH
TAF AMD
KOTH 020246Z 0203/0224 28004KT P6SM SKC
     FM020500 26004KT 4SM BR OVC006
     FM021600 34005KT P6SM SCT012=



000
FTUS46 KMFR 020013 AAA
TAFMFR
TAF AMD
KMFR 020013Z 0200/0224 30009KT 2SM HZ FU BKN060
     FM020400 VRB03KT 3SM FU SCT030 BKN090 BKN250=



000
FTUS46 KMFR 012329
TAFRBG
TAF
KRBG 012329Z 0200/0224 29008G15KT P6SM SKC
     FM020400 VRB03KT P6SM SCT250=



000
FTUS46 KMFR 012329
TAFOTH
TAF
KOTH 012329Z 0200/0224 25007KT P6SM SKC
     FM020300 27005KT 2SM BR OVC006
     FM021600 34005KT P6SM SCT012=



000
FTUS46 KMFR 012329
TAFMFR
TAF
KMFR 012329Z 0200/0224 28009KT 1 1/2SM HZ FU VV020
     FM020400 VRB03KT 3SM FU SCT030 BKN090 BKN250=



000
FTUS46 KMFR 012329
TAFLMT
TAF
KLMT 012329Z 0200/0224 21007KT P6SM SCT070
     FM020500 VRB03KT P6SM SCT070=



000
FTUS46 KMFR 012031 AAA
TAFMFR
TAF AMD
KMFR 012031Z 0121/0218 VRB03KT 1SM FU VV015
     FM012200 32010KT 3SM FU VCTS BKN030 BKN090CB BKN250
     FM020400 VRB03KT 3SM FU BKN030 BKN090 BKN250=



000
FTUS46 KMFR 011733
TAFMFR
TAF
KMFR 011733Z 0118/0218 VRB03KT 3SM FU BKN030 BKN090 BKN250
     FM012200 32010KT 3SM FU VCTS SCT030 BKN090CB BKN250
     FM020400 VRB03KT 3SM FU BKN030 BKN090 BKN250=



000
FTUS46 KMFR 011733
TAFLMT
TAF
KLMT 011733Z 0118/0218 VRB03KT P6SM BKN200
     FM012300 32010KT P6SM VCTS BKN070CB BKN200
     FM020400 VRB03KT P6SM SCT070 BKN200=



000
FTUS46 KMFR 011733
TAFRBG
TAF
KRBG 011733Z 0118/0218 VRB03KT P6SM SCT250
     FM012100 36010KT P6SM SCT100 BKN250
     FM020300 VRB03KT P6SM SCT250=



000
FTUS46 KMFR 011733
TAFOTH
TAF
KOTH 011733Z 0118/0218 32010KT P6SM BKN150
     FM012000 36012G20KT P6SM BKN150
     FM020400 36008KT 2SM BR OVC006
     FM021600 34008KT P6SM SCT012=



000
FTUS46 KMFR 011600 AAA
TAFOTH
TAF AMD
KOTH 011600Z 0116/0212 27005KT P6SM SCT150 BKN250
     FM011800 33010KT P6SM BKN150
     FM012000 36012G20KT P6SM BKN150
     FM020400 36008KT 1SM BR OVC003=



000
FTUS46 KMFR 011139
TAFMFR
TAF
KMFR 011139Z 0112/0212 VRB03KT 3SM FU SCT090 BKN250
     FM012200 32010KT 3SM FU BKN090 BKN250
     FM020400 VRB03KT 3SM FU SCT090 BKN250=



000
FTUS46 KMFR 011139
TAFRBG
TAF
KRBG 011139Z 0112/0212 VRB03KT P6SM SCT250
     FM012100 36010KT P6SM SCT100 BKN250
     FM020300 VRB03KT P6SM SCT250=



000
FTUS46 KMFR 011139
TAFOTH
TAF
KOTH 011139Z 0112/0212 VRB04KT 1/2SM FG OVC002
     FM011800 34010KT P6SM SCT004 SCT250
     FM012000 36012G20KT P6SM SCT250
     FM020400 36008KT 1SM BR OVC003=



000
FTUS46 KMFR 011139
TAFLMT
TAF
KLMT 011139Z 0112/0212 VRB03KT P6SM BKN200
     FM012300 32010KT P6SM VCTS BKN070CB BKN200
     FM020400 VRB03KT P6SM SCT070 BKN200=



000
FTUS46 KMFR 010520
TAFMFR
TAF
KMFR 010520Z 0106/0206 VRB03KT 3SM FU SCT090 BKN250
     FM012200 32010KT 3SM FU BKN090 BKN250
     FM020400 VRB03KT 3SM FU SCT090 BKN250=



000
FTUS46 KMFR 010520
TAFMFR
TAF
KMFR 010520Z 0106/0206 VRB03KT 3SM FU SCT090 BKN250
     FM012200 32010KT 3SM FU BKN090 BKN250
     FM020400 VRB03KT 3SM FU SCT090 BKN250=



000
FTUS46 KMFR 010520
TAFRBG
TAF
KRBG 010520Z 0106/0206 VRB03KT P6SM SCT250
     FM012100 36010KT P6SM SCT100 BKN250
     FM020300 VRB03KT P6SM SCT250=



000
FTUS46 KMFR 010520
TAFLMT
TAF
KLMT 010520Z 0106/0206 VRB03KT P6SM SCT070 BKN200
     FM012300 32010KT P6SM VCTS BKN070CB BKN200
     FM020400 VRB03KT P6SM SCT070 BKN200=



000
FTUS46 KMFR 010520
TAFOTH
TAF
KOTH 010520Z 0106/0206 36008KT P6SM SKC
     FM010900 VRB03KT 1/2SM FG OVC002
     FM011800 34010KT P6SM SCT004 SCT250
     FM012000 36012G20KT P6SM SCT250
     FM020400 36008KT 1SM BR OVC003=



000
FTUS46 KMFR 010029 AAA
TAFMFR
TAF AMD
KMFR 010029Z 0100/0124 02011G14KT 1SM FU FEW029=



000
FTUS46 KMFR 312349
TAFLMT
TAF
KLMT 312349Z 0100/0124 16004KT P6SM SKC
     FM010200 27006KT P6SM VCTS SCT080CB
     FM010400 VRB03KT P6SM SCT200=



000
FTUS46 KMFR 312349
TAFOTH
TAF
KOTH 312349Z 0100/0124 36019G25KT P6SM SKC
     FM010600 35006KT P6SM BKN009
     FM011400 34005KT P6SM SCT009
     FM011800 34014G20KT P6SM SKC=



000
FTUS46 KMFR 312349
TAFMFR
TAF
KMFR 312349Z 0100/0124 32005KT 6SM FU SKC=



000
FTUS46 KMFR 312349
TAFRBG
TAF
KRBG 312349Z 0100/0124 36014G19KT P6SM SKC
     FM010400 35005KT P6SM SKC
     FM011600 VRB03KT 3SM HZ FU SCT200
     FM012200 35008G14KT P6SM SKC=



000
FTUS46 KMFR 311728
TAFMFR
TAF
KMFR 311728Z 3118/0118 VRB03KT P6SM SCT060
     FM312100 33005KT 4SM HZ SKC=



000
FTUS46 KMFR 311728
TAFRBG
TAF
KRBG 311728Z 3118/0118 VRB03KT 4SM HZ FU SKC
     FM312000 35006KT 6SM HZ SKC
     FM312300 35010G15KT P6SM VCTS SCT080CB BKN200
     FM010400 35005KT P6SM SKC
     FM011600 VRB03KT 3SM HZ FU SCT200=



000
FTUS46 KMFR 311728
TAFOTH
TAF
KOTH 311728Z 3118/0118 35010KT P6SM SKC
     FM312200 35020G30KT P6SM SKC
     FM010600 35006KT P6SM BKN009=



000
FTUS46 KMFR 311728
TAFLMT
TAF
KLMT 311728Z 3118/0118 VRB05KT P6SM SCT150
     FM312300 32008KT P6SM VCTS SCT100CB BKN200
     FM010400 VRB03KT P6SM SCT200=



000
FTUS46 KMFR 311702 AAC
TAFRBG
TAF AMD
KRBG 311702Z 3117/0112 VRB03KT 4SM HZ FU SKC
     FM312000 35006KT 6SM HZ SKC
     FM312300 35010G15KT P6SM SKC
     FM010300 35007KT P6SM SKC=



000
FTUS46 KMFR 311702 AAC
TAFRBG
TAF AMD
KRBG 311702Z 3117/0112 VRB03KT 4SM HZ FU SKC
     FM312000 35006KT 6SM HZ SKC
     FM312300 35010G15KT P6SM SKC
     FM010300 35007KT P6SM SKC=



000
FTUS46 KMFR 311700 AAB
TAFRBG
TAF AMD
KRBG 311700Z 3117/0112 VRB03KT 3SM HZ FU SKC
     FM312000 35006KT 6SM HZ SKC
     FM312300 35010G15KT P6SM SKC
     FM010300 35007KT P6SM SKC=



000
FTUS46 KMFR 311549 AAA
TAFRBG
TAF AMD
KRBG 311549Z 3116/0112 VRB03KT 6SM HZ FU SKC
     FM312000 35006KT 6SM HZ SKC
     FM312300 35010G15KT P6SM SKC
     FM010300 35007KT P6SM SKC=



000
FTUS46 KMFR 311421 AAB
TAFOTH
TAF AMD
KOTH 311421Z 3114/0112 29003KT P6SM SCT002
     FM311600 VRB03KT P6SM SKC
     FM311800 35010KT P6SM SKC
     FM312200 35020G30KT P6SM SKC
     FM010600 35006KT P6SM BKN009=



000
FTUS46 KMFR 311421 AAB
TAFOTH
TAF AMD
KOTH 311421Z 3114/0112 29003KT P6SM SCT002
     FM311600 VRB03KT P6SM SKC
     FM311800 35010KT P6SM SKC
     FM312200 35020G30KT P6SM SKC
     FM010600 35006KT P6SM BKN009=



000
FTUS46 KMFR 311329 AAA
TAFOTH
TAF AMD
KOTH 311329Z 3113/0112 VRB03KT 1/2SM FG OVC002
     FM311600 VRB03KT 3SM BR OVC005
     FM311800 35010KT P6SM SKC
     FM312200 35020G30KT P6SM SKC
     FM010600 35006KT P6SM BKN009=



000
FTUS46 KMFR 311329 AAA
TAFOTH
TAF AMD
KOTH 311329Z 3113/0112 VRB03KT 1/2SM FG OVC002
     FM311600 VRB03KT 3SM BR OVC005
     FM311800 35010KT P6SM SKC
     FM312200 35020G30KT P6SM SKC
     FM010600 35006KT P6SM BKN009=



000
FTUS46 KMFR 311138
TAFRBG
TAF
KRBG 311138Z 3112/0112 00000KT P6SM BKN150
     FM311500 VRB03KT 3SM HZ FU SKC
     FM312000 35006KT 6SM HZ SKC
     FM312300 35010G15KT P6SM SKC
     FM010300 35007KT P6SM SKC=



000
FTUS46 KMFR 311138
TAFMFR
TAF
KMFR 311138Z 3112/0112 VRB03KT P6SM SCT060
     FM312100 33005KT 4SM HZ SKC=



000
FTUS46 KMFR 311138
TAFOTH
TAF
KOTH 311138Z 3112/0112 VRB03KT P6SM VCFG BKN005 BKN150
     FM311300 VRB03KT 3SM BR OVC005
     FM311800 35010KT P6SM SKC
     FM312200 35020G30KT P6SM SKC
     FM010600 35006KT P6SM BKN009=



000
FTUS46 KMFR 311138
TAFLMT
TAF
KLMT 311138Z 3112/0112 VRB05KT P6SM SCT150
     FM312300 32008KT P6SM SCT100=



    US Dept of Commerce
    National Oceanic and Atmospheric Administration
    National Weather Service
    1325 East West Highway
    Silver Spring, MD 20910
    Page Author: NWS Internet Services Team
Disclaimer
Information Quality
Credits
Glossary
Privacy Policy
Freedom of Information Act (FOIA)
About Us
Career Opportunities